Terminal Aerodrome Forecast
Issued by NWS

Current Version | Previous Version | Text Only | Print | Product List | Glossary On
Versions: 1 2 3 4 5 6 7 8 9 10 11 12 13 14 15 16 17 18
000
FTUS42 KMLB 281405 AAC
TAFFPR
TAF AMD
KFPR 281405Z 2814/2912 01003KT 3SM -RA FEW035 BKN070 OVC100
     FM281500 11008KT P6SM SCT025 OVC150
     FM281800 12009KT P6SM VCSH BKN035 BKN100
      TEMPO 2818/2822 3SM SHRA BR BKN025 OVC050
     FM290000 17006KT P6SM VCSH BKN050 OVC100
      TEMPO 2900/2904 3SM SHRA BR BKN025
     FM290600 20005KT P6SM VCSH BKN025=

USA.gov is the U.S. government's official web portal to all federal, state and local government web resources and services.